createdAt,value
2022-09-28T00:00:09.716Z,96710.69
2022-09-28T00:02:36.121Z,96709.91
2022-09-28T00:05:02.436Z,96712.84
2022-09-28T00:07:28.954Z,96705.59
2022-09-28T00:09:55.208Z,96706.69
2022-09-28T00:12:22.353Z,96702.34
2022-09-28T00:14:48.611Z,96702.69
2022-09-28T00:17:16.816Z,96702.00
2022-09-28T00:19:44.823Z,96705.63
2022-09-28T00:22:11.173Z,96694.75
2022-09-28T00:24:37.457Z,96705.25
2022-09-28T00:27:04.170Z,96696.91
2022-09-28T00:29:34.746Z,96697.69
2022-09-28T00:32:03.027Z,96694.41
2022-09-28T00:34:33.167Z,96693.66
2022-09-28T00:37:00.219Z,96694.38
2022-09-28T00:39:27.114Z,96686.78
2022-09-28T00:41:54.032Z,96689.66
2022-09-28T00:44:26.243Z,96689.28
2022-09-28T00:46:54.305Z,96690.03
2022-09-28T00:49:22.670Z,96685.31
2022-09-28T00:51:48.989Z,96686.75
2022-09-28T00:54:16.060Z,96682.06
2022-09-28T00:56:44.418Z,96675.91
2022-09-28T00:59:10.915Z,96676.25
2022-09-28T01:01:37.441Z,96679.16
2022-09-28T01:04:04.877Z,96679.16
2022-09-28T01:06:33.234Z,96679.50
2022-09-28T01:09:02.508Z,96674.06
2022-09-28T01:11:31.196Z,96669.72
2022-09-28T01:13:57.850Z,96670.44
2022-09-28T01:16:31.922Z,96667.91
2022-09-28T01:18:58.206Z,96667.53
2022-09-28T01:21:25.019Z,96663.56
2022-09-28T01:24:05.623Z,96659.22
2022-09-28T01:26:50.512Z,96663.94
2022-09-28T01:29:36.421Z,96658.16
2022-09-28T01:32:11.236Z,96646.19
2022-09-28T01:34:39.342Z,96642.94
2022-09-28T01:37:09.602Z,96645.06
2022-09-28T01:39:41.117Z,96647.22
2022-09-28T01:42:13.315Z,96643.94
2022-09-28T01:44:42.020Z,96638.50
2022-09-28T01:47:10.817Z,96640.31
2022-09-28T01:49:39.009Z,96645.03
2022-09-28T01:52:20.458Z,96641.75
2022-09-28T01:54:50.232Z,96643.88
2022-09-28T01:57:23.632Z,96640.25
2022-09-28T01:59:58.339Z,96643.88
2022-09-28T02:02:26.594Z,96638.06
2022-09-28T02:04:58.883Z,96634.81
2022-09-28T02:07:39.122Z,96631.56
2022-09-28T02:10:09.640Z,96635.53
2022-09-28T02:12:51.203Z,96629.34
2022-09-28T02:15:17.518Z,96634.31
2022-09-28T02:17:44.345Z,96637.22
2022-09-28T02:20:10.920Z,96635.75
2022-09-28T02:22:40.702Z,96635.38
2022-09-28T02:25:19.036Z,96629.56
2022-09-28T02:27:52.287Z,96637.50
2022-09-28T02:30:18.909Z,96626.31
2022-09-28T02:32:46.756Z,96625.91
2022-09-28T02:35:14.410Z,96623.72
2022-09-28T02:37:40.745Z,96617.25
2022-09-28T02:40:17.570Z,96622.25
2022-09-28T02:42:43.869Z,96618.28
2022-09-28T02:45:29.276Z,96615.44
2022-09-28T02:47:58.544Z,96618.72
2022-09-28T02:50:34.039Z,96617.94
2022-09-28T02:53:19.218Z,96611.09
2022-09-28T02:56:04.331Z,96613.22
2022-09-28T02:58:35.257Z,96614.31
2022-09-28T03:01:20.444Z,96612.13
2022-09-28T03:03:52.627Z,96609.97
2022-09-28T03:06:21.900Z,96607.47
2022-09-28T03:08:54.288Z,96604.19
2022-09-28T03:11:38.228Z,96593.72
2022-09-28T03:14:04.735Z,96592.34
2022-09-28T03:16:32.350Z,96589.06
2022-09-28T03:18:58.686Z,96591.22
2022-09-28T03:21:24.939Z,96586.53
2022-09-28T03:23:51.187Z,96586.63
2022-09-28T03:26:18.119Z,96586.31
2022-09-28T03:28:44.390Z,96584.75
2022-09-28T03:31:10.739Z,96582.94
2022-09-28T03:33:37.051Z,96581.16
2022-09-28T03:36:03.333Z,96573.28
2022-09-28T03:38:29.667Z,96575.00
2022-09-28T03:40:56.920Z,96572.81
2022-09-28T03:43:23.844Z,96576.09
2022-09-28T03:45:57.253Z,96576.06
2022-09-28T03:48:27.619Z,96568.09
2022-09-28T03:50:56.819Z,96559.44
2022-09-28T03:53:23.424Z,96563.78
2022-09-28T03:55:50.551Z,96566.31
2022-09-28T03:58:17.478Z,96574.69
2022-09-28T04:00:43.762Z,96573.59
2022-09-28T04:03:10.041Z,96578.72
2022-09-28T04:05:36.336Z,96574.69
2022-09-28T04:08:02.639Z,96579.75
2022-09-28T04:10:28.981Z,96574.72
2022-09-28T04:12:56.006Z,96575.78
2022-09-28T04:15:23.039Z,96577.59
2022-09-28T04:17:49.348Z,96574.69
2022-09-28T04:20:15.673Z,96564.63
2022-09-28T04:22:42.117Z,96572.59
2022-09-28T04:25:08.686Z,96562.81
2022-09-28T04:27:53.491Z,96561.00
2022-09-28T04:30:19.885Z,96563.16
2022-09-28T04:32:46.581Z,96557.75
2022-09-28T04:35:13.374Z,96550.59
2022-09-28T04:37:40.167Z,96543.00
2022-09-28T04:40:06.797Z,96553.06
2022-09-28T04:42:33.050Z,96544.00
2022-09-28T04:45:00.911Z,96543.25
2022-09-28T04:47:27.207Z,96539.69
2022-09-28T04:49:53.471Z,96545.81
2022-09-28T04:52:19.733Z,96547.66
2022-09-28T04:54:46.002Z,96530.69
2022-09-28T04:57:12.272Z,96525.25
2022-09-28T04:59:38.555Z,96521.97
2022-09-28T05:02:04.957Z,96512.91
2022-09-28T05:04:31.424Z,96509.34
2022-09-28T05:06:57.735Z,96509.69
2022-09-28T05:09:24.002Z,96493.75
2022-09-28T05:11:52.200Z,96485.84
2022-09-28T05:14:19.770Z,96478.56
2022-09-28T05:16:46.124Z,96476.75
2022-09-28T05:19:12.490Z,96472.44
2022-09-28T05:21:38.747Z,96479.97
2022-09-28T05:24:07.507Z,96479.63
2022-09-28T05:26:34.101Z,96474.59
2022-09-28T05:29:00.404Z,96476.72
2022-09-28T05:31:29.577Z,96478.88
2022-09-28T05:33:55.900Z,96474.53
2022-09-28T05:36:22.281Z,96475.63
2022-09-28T05:38:48.633Z,96486.09
2022-09-28T05:41:14.884Z,96485.78
2022-09-28T05:43:41.162Z,96485.75
2022-09-28T05:46:07.879Z,96490.13
2022-09-28T05:48:34.173Z,96484.38
2022-09-28T05:51:00.411Z,96480.72
2022-09-28T05:53:26.685Z,96482.94
2022-09-28T05:55:52.948Z,96482.22
2022-09-28T05:58:19.277Z,96477.13
2022-09-28T06:00:45.681Z,96472.78
2022-09-28T06:03:12.772Z,96472.06
2022-09-28T06:05:39.362Z,96474.59
2022-09-28T06:08:06.583Z,96465.56
2022-09-28T06:10:33.362Z,96452.53
2022-09-28T06:13:00.127Z,96459.41
2022-09-28T06:15:27.640Z,96457.94
2022-09-28T06:18:00.658Z,96460.50
2022-09-28T06:20:27.496Z,96450.00
2022-09-28T06:22:53.923Z,96448.22
2022-09-28T06:25:21.591Z,96443.13
2022-09-28T06:27:54.658Z,96434.06
2022-09-28T06:30:21.172Z,96426.84
2022-09-28T06:32:47.443Z,96428.63
2022-09-28T06:35:16.064Z,96419.97
2022-09-28T06:37:44.367Z,96414.91
2022-09-28T06:40:10.616Z,96415.97
2022-09-28T06:42:37.205Z,96408.38
2022-09-28T06:45:04.493Z,96411.66
2022-09-28T06:47:32.079Z,96406.56
2022-09-28T06:49:58.619Z,96406.22
2022-09-28T06:52:25.487Z,96414.91
2022-09-28T06:54:52.034Z,96422.16
2022-09-28T06:57:18.442Z,96430.09
2022-09-28T06:59:44.733Z,96439.50
2022-09-28T07:02:14.248Z,96427.91
2022-09-28T07:04:41.987Z,96420.72
2022-09-28T07:07:11.305Z,96424.28
2022-09-28T07:09:42.194Z,96426.84
2022-09-28T07:12:13.130Z,96428.28
2022-09-28T07:14:47.718Z,96422.81
2022-09-28T07:17:15.071Z,96420.69
2022-09-28T07:19:41.609Z,96428.25
2022-09-28T07:22:08.018Z,96431.19
2022-09-28T07:24:34.292Z,96435.16
2022-09-28T07:27:02.543Z,96433.69
2022-09-28T07:29:28.896Z,96439.50
2022-09-28T07:31:55.159Z,96444.16
2022-09-28T07:34:23.089Z,96441.28
2022-09-28T07:36:49.352Z,96448.16
2022-09-28T07:39:15.637Z,96453.59
2022-09-28T07:41:42.996Z,96461.91
2022-09-28T07:44:09.246Z,96455.44
2022-09-28T07:46:36.850Z,96447.44
2022-09-28T07:49:09.774Z,96459.75
2022-09-28T07:51:38.589Z,96446.38
2022-09-28T07:54:06.508Z,96434.44
2022-09-28T07:56:34.820Z,96428.66
2022-09-28T07:59:01.079Z,96427.88
2022-09-28T08:01:27.429Z,96427.91
2022-09-28T08:03:56.214Z,96433.69
2022-09-28T08:06:23.217Z,96422.09
2022-09-28T08:08:50.199Z,96431.91
2022-09-28T08:11:17.707Z,96428.25
2022-09-28T08:13:45.564Z,96430.75
2022-09-28T08:16:12.196Z,96426.72
2022-09-28T08:18:38.670Z,96433.19
2022-09-28T08:21:23.937Z,96424.91
2022-09-28T08:23:50.552Z,96437.25
2022-09-28T08:26:17.033Z,96442.69
2022-09-28T08:28:45.014Z,96445.91
2022-09-28T08:31:11.498Z,96439.72
2022-09-28T08:33:37.857Z,96433.56
2022-09-28T08:36:04.640Z,96431.72
2022-09-28T08:38:31.314Z,96445.50
2022-09-28T08:41:07.440Z,96450.59
2022-09-28T08:43:37.005Z,96434.25
2022-09-28T08:46:03.465Z,96437.88
2022-09-28T08:48:51.737Z,96437.50
2022-09-28T08:52:00.145Z,96448.41
2022-09-28T08:54:48.728Z,96452.75
2022-09-28T08:57:23.025Z,96440.09
2022-09-28T08:59:54.097Z,96444.03
2022-09-28T09:02:33.994Z,96437.16
2022-09-28T09:05:01.857Z,96433.97
2022-09-28T09:07:46.758Z,96438.66
2022-09-28T09:10:18.657Z,96431.47
2022-09-28T09:12:44.985Z,96439.78
2022-09-28T09:15:26.275Z,96449.94
2022-09-28T09:18:00.420Z,96449.91
2022-09-28T09:20:32.590Z,96448.50
2022-09-28T09:23:00.236Z,96449.56
2022-09-28T09:25:36.520Z,96450.34
2022-09-28T09:28:04.588Z,96458.69
2022-09-28T09:30:49.582Z,96449.59
2022-09-28T09:33:30.264Z,96447.38
2022-09-28T09:36:19.521Z,96440.50
2022-09-28T09:39:03.162Z,96439.75
2022-09-28T09:41:38.326Z,96429.94
2022-09-28T09:44:04.543Z,96434.25
2022-09-28T09:46:41.418Z,96437.44
2022-09-28T09:49:16.121Z,96432.34
2022-09-28T09:51:48.530Z,96436.31
2022-09-28T09:54:27.312Z,96433.13
2022-09-28T09:57:03.088Z,96430.59
2022-09-28T09:59:34.655Z,96427.84
2022-09-28T10:02:01.713Z,96437.25
2022-09-28T10:04:30.806Z,96432.84
2022-09-28T10:06:59.213Z,96427.81
2022-09-28T10:09:42.881Z,96426.34
2022-09-28T10:12:11.869Z,96427.81
2022-09-28T10:14:38.166Z,96430.72
2022-09-28T10:17:04.900Z,96436.22
2022-09-28T10:19:32.921Z,96426.41
2022-09-28T10:22:02.064Z,96430.41
2022-09-28T10:24:36.487Z,96438.00
2022-09-28T10:27:13.350Z,96442.00
2022-09-28T10:29:50.697Z,96438.41
2022-09-28T10:32:24.336Z,96445.25
2022-09-28T10:34:51.539Z,96430.47
2022-09-28T10:37:18.415Z,96419.25
2022-09-28T10:39:48.055Z,96410.56
2022-09-28T10:42:18.883Z,96417.06
2022-09-28T10:44:53.387Z,96413.78
2022-09-28T10:47:20.214Z,96400.03
2022-09-28T10:49:48.770Z,96400.75
2022-09-28T10:52:31.737Z,96399.25
2022-09-28T10:54:58.396Z,96392.03
2022-09-28T10:57:42.923Z,96403.66
2022-09-28T11:00:28.804Z,96393.50
2022-09-28T11:02:55.215Z,96393.81
2022-09-28T11:05:23.002Z,96391.53
2022-09-28T11:07:49.789Z,96389.06
2022-09-28T11:10:21.448Z,96386.84
2022-09-28T11:12:49.197Z,96389.78
2022-09-28T11:15:20.007Z,96394.81
2022-09-28T11:17:46.254Z,96389.75
2022-09-28T11:20:27.048Z,96390.84
2022-09-28T11:22:58.862Z,96380.72
2022-09-28T11:25:26.686Z,96383.59
2022-09-28T11:27:52.928Z,96373.47
2022-09-28T11:30:31.025Z,96382.88
2022-09-28T11:33:01.761Z,96385.78
2022-09-28T11:35:32.558Z,96384.28
2022-09-28T11:37:58.779Z,96389.00
2022-09-28T11:40:25.055Z,96400.59
2022-09-28T11:43:03.650Z,96408.19
2022-09-28T11:45:48.923Z,96408.94
2022-09-28T11:48:17.518Z,96393.72
2022-09-28T11:50:49.540Z,96386.06
2022-09-28T11:53:22.172Z,96375.91
2022-09-28T11:56:01.229Z,96382.13
2022-09-28T11:58:31.495Z,96384.63
2022-09-28T12:01:01.983Z,96374.09
2022-09-28T12:03:31.059Z,96380.94
2022-09-28T12:06:02.227Z,96374.41
2022-09-28T12:08:37.353Z,96379.09
2022-09-28T12:11:15.619Z,96376.19
2022-09-28T12:13:52.761Z,96370.34
2022-09-28T12:16:53.557Z,96377.13
2022-09-28T12:19:15.903Z,96370.88
2022-09-28T12:21:45.055Z,96371.53
2022-09-28T12:24:14.391Z,96377.66
2022-09-28T12:26:46.825Z,96370.97
2022-09-28T12:29:15.384Z,96374.44
2022-09-28T12:31:57.075Z,96384.69
2022-09-28T12:34:23.313Z,96382.63
2022-09-28T12:36:58.431Z,96388.84
2022-09-28T12:39:53.630Z,96390.00
2022-09-28T12:42:39.136Z,96393.19
2022-09-28T12:45:05.395Z,96398.69
2022-09-28T12:47:41.081Z,96405.19
2022-09-28T12:50:44.728Z,96405.78
2022-09-28T12:53:13.987Z,96412.31
2022-09-28T12:55:55.944Z,96401.81
2022-09-28T12:58:25.175Z,96415.59
2022-09-28T13:01:20.912Z,96414.22
2022-09-28T13:04:06.394Z,96422.13
2022-09-28T13:06:37.084Z,96426.53
2022-09-28T13:09:16.082Z,96420.66
2022-09-28T13:11:49.169Z,96416.09
2022-09-28T13:14:18.418Z,96422.28
2022-09-28T13:17:00.618Z,96420.38
2022-09-28T13:19:33.358Z,96428.81
2022-09-28T13:22:17.697Z,96441.81
2022-09-28T13:24:45.078Z,96438.75
2022-09-28T13:27:14.631Z,96436.59
2022-09-28T13:29:41.856Z,96440.28
2022-09-28T13:32:09.569Z,96448.31
2022-09-28T13:34:36.554Z,96448.25
2022-09-28T13:37:16.797Z,96456.84
2022-09-28T13:39:45.807Z,96456.06
2022-09-28T13:42:21.698Z,96461.53
2022-09-28T13:45:14.626Z,96454.56
2022-09-28T13:47:49.727Z,96463.69
2022-09-28T13:50:22.160Z,96467.00
2022-09-28T13:52:59.510Z,96474.09
2022-09-28T13:55:32.864Z,96473.72
2022-09-28T13:58:04.514Z,96482.56
2022-09-28T14:00:38.221Z,96494.25
2022-09-28T14:03:13.171Z,96497.88
2022-09-28T14:05:47.278Z,96491.34
2022-09-28T14:08:25.795Z,96501.47
2022-09-28T14:10:53.455Z,96505.91
2022-09-28T14:13:38.211Z,96503.00
2022-09-28T14:16:20.845Z,96510.22
2022-09-28T14:19:08.088Z,96508.78
2022-09-28T14:21:37.652Z,96515.28
2022-09-28T14:24:18.901Z,96514.25
2022-09-28T14:26:58.961Z,96520.00
2022-09-28T14:29:29.406Z,96521.13
2022-09-28T14:32:04.358Z,96533.44
2022-09-28T14:34:40.611Z,96532.03
2022-09-28T14:37:44.476Z,96538.56
2022-09-28T14:40:38.594Z,96532.75
2022-09-28T14:43:24.231Z,96540.00
2022-09-28T14:45:52.016Z,96544.72
2022-09-28T14:48:20.118Z,96546.53
2022-09-28T14:50:47.691Z,96554.84
2022-09-28T14:53:19.492Z,96550.50
2022-09-28T14:55:50.270Z,96554.47
2022-09-28T14:58:22.389Z,96550.16
2022-09-28T15:00:50.115Z,96554.16
2022-09-28T15:03:17.137Z,96548.66
2022-09-28T15:05:46.934Z,96545.75
2022-09-28T15:08:13.447Z,96547.97
2022-09-28T15:10:43.949Z,96556.66
2022-09-28T15:13:21.793Z,96554.88
2022-09-28T15:15:50.502Z,96558.50
2022-09-28T15:18:27.532Z,96553.78
2022-09-28T15:20:54.172Z,96564.28
2022-09-28T15:23:40.434Z,96565.72
2022-09-28T15:26:08.433Z,96564.25
2022-09-28T15:28:35.707Z,96559.94
2022-09-28T15:31:02.999Z,96564.63
2022-09-28T15:33:49.417Z,96561.38
2022-09-28T15:36:18.775Z,96566.09
2022-09-28T15:38:50.803Z,96568.28
2022-09-28T15:41:17.093Z,96575.56
2022-09-28T15:43:46.794Z,96580.97
2022-09-28T15:46:14.132Z,96581.69
2022-09-28T15:48:40.699Z,96590.06
2022-09-28T15:51:11.537Z,96589.00
2022-09-28T15:53:58.149Z,96592.59
2022-09-28T15:56:25.391Z,96594.44
2022-09-28T15:59:10.960Z,96604.91
2022-09-28T16:01:41.000Z,96612.16
2022-09-28T16:04:25.855Z,96617.97
2022-09-28T16:07:10.389Z,96623.75
2022-09-28T16:09:55.602Z,96622.69
2022-09-28T16:12:22.313Z,96620.16
2022-09-28T16:14:50.573Z,96624.84
2022-09-28T16:17:35.254Z,96623.41
2022-09-28T16:20:03.831Z,96630.66
2022-09-28T16:22:32.425Z,96629.94
2022-09-28T16:24:59.981Z,96632.47
2022-09-28T16:27:38.854Z,96631.75
2022-09-28T16:30:20.099Z,96641.88
2022-09-28T16:32:54.481Z,96643.69
2022-09-28T16:35:21.039Z,96652.75
2022-09-28T16:37:49.516Z,96648.03
2022-09-28T16:40:15.886Z,96654.56
2022-09-28T16:42:48.156Z,96654.91
2022-09-28T16:45:19.866Z,96660.69
2022-09-28T16:47:47.190Z,96663.25
2022-09-28T16:50:14.482Z,96663.97
2022-09-28T16:53:00.201Z,96671.56
2022-09-28T16:55:40.172Z,96664.69
2022-09-28T16:58:08.081Z,96670.13
2022-09-28T17:00:34.362Z,96667.56
2022-09-28T17:03:00.693Z,96667.59
2022-09-28T17:05:27.038Z,96675.88
2022-09-28T17:08:00.230Z,96672.63
2022-09-28T17:10:45.024Z,96675.84
2022-09-28T17:13:23.452Z,96678.41
2022-09-28T17:15:50.338Z,96678.03
2022-09-28T17:18:18.006Z,96685.25
2022-09-28T17:20:46.003Z,96686.72
2022-09-28T17:23:12.308Z,96681.28
2022-09-28T17:25:38.697Z,96689.59
2022-09-28T17:28:05.343Z,96693.22
2022-09-28T17:30:31.747Z,96694.31
2022-09-28T17:33:00.081Z,96694.66
2022-09-28T17:35:26.321Z,96697.91
2022-09-28T17:37:52.596Z,96703.00
2022-09-28T17:40:28.139Z,96704.06
2022-09-28T17:42:57.845Z,96703.72
2022-09-28T17:45:28.531Z,96705.53
2022-09-28T17:47:57.841Z,96711.28
2022-09-28T17:50:25.769Z,96712.06
2022-09-28T17:52:52.534Z,96708.75
2022-09-28T17:55:19.798Z,96711.66
2022-09-28T17:57:46.097Z,96714.56
2022-09-28T18:00:13.473Z,96720.34
2022-09-28T18:02:40.399Z,96720.31
2022-09-28T18:05:06.789Z,96724.66
2022-09-28T18:07:34.392Z,96728.28
2022-09-28T18:10:00.922Z,96724.63
2022-09-28T18:12:27.525Z,96729.31
2022-09-28T18:14:53.860Z,96726.41
2022-09-28T18:17:20.380Z,96728.25
2022-09-28T18:19:46.695Z,96726.78
2022-09-28T18:22:13.079Z,96732.19
2022-09-28T18:24:39.402Z,96732.16
2022-09-28T18:27:05.706Z,96737.22
2022-09-28T18:29:33.579Z,96733.25
2022-09-28T18:32:00.194Z,96739.34
2022-09-28T18:34:26.463Z,96740.78
2022-09-28T18:36:52.891Z,96743.31
2022-09-28T18:39:19.263Z,96745.13
2022-09-28T18:41:45.685Z,96747.63
2022-09-28T18:44:11.992Z,96754.47
2022-09-28T18:46:38.489Z,96747.22
2022-09-28T18:49:05.070Z,96749.03
2022-09-28T18:51:31.345Z,96747.91
2022-09-28T18:53:57.688Z,96748.22
2022-09-28T18:56:24.045Z,96757.22
2022-09-28T18:58:53.465Z,96753.22
2022-09-28T19:01:36.257Z,96754.28
2022-09-28T19:04:04.082Z,96747.03
2022-09-28T19:06:31.727Z,96753.16
2022-09-28T19:08:58.526Z,96746.66
2022-09-28T19:11:25.026Z,96750.94
2022-09-28T19:13:52.591Z,96758.88
2022-09-28T19:16:24.002Z,96753.44
2022-09-28T19:18:52.385Z,96758.44
2022-09-28T19:21:19.342Z,96755.88
2022-09-28T19:23:49.352Z,96747.16
2022-09-28T19:26:20.906Z,96755.03
2022-09-28T19:28:49.107Z,96760.06
2022-09-28T19:31:15.814Z,96759.38
2022-09-28T19:33:42.432Z,96762.91
2022-09-28T19:36:11.499Z,96756.31
2022-09-28T19:38:38.672Z,96753.78
2022-09-28T19:41:08.433Z,96761.34
2022-09-28T19:43:34.807Z,96761.00
2022-09-28T19:46:04.551Z,96765.66
2022-09-28T19:48:31.506Z,96764.09
2022-09-28T19:50:59.266Z,96763.25
2022-09-28T19:53:26.465Z,96767.56
2022-09-28T19:55:53.808Z,96770.03
2022-09-28T19:58:24.671Z,96771.16
2022-09-28T20:00:51.647Z,96777.72
2022-09-28T20:03:18.598Z,96773.03
2022-09-28T20:05:45.433Z,96776.34
2022-09-28T20:08:12.358Z,96769.84
2022-09-28T20:10:39.119Z,96771.94
2022-09-28T20:13:05.446Z,96786.63
2022-09-28T20:15:31.815Z,96784.16
2022-09-28T20:17:58.860Z,96789.63
2022-09-28T20:20:26.804Z,96792.06
2022-09-28T20:22:53.783Z,96792.03
2022-09-28T20:25:20.202Z,96793.09
2022-09-28T20:27:46.518Z,96796.69
2022-09-28T20:30:13.346Z,96803.47
2022-09-28T20:32:39.652Z,96802.03
2022-09-28T20:35:06.318Z,96808.91
2022-09-28T20:37:34.030Z,96808.50
2022-09-28T20:40:01.753Z,96813.25
2022-09-28T20:42:29.832Z,96813.56
2022-09-28T20:44:56.136Z,96814.97
2022-09-28T20:47:22.401Z,96819.03
2022-09-28T20:49:48.702Z,96820.41
2022-09-28T20:52:14.987Z,96831.91
2022-09-28T20:54:41.307Z,96826.09
2022-09-28T20:57:17.370Z,96830.75
2022-09-28T20:59:44.403Z,96837.94
2022-09-28T21:02:14.627Z,96832.47
2022-09-28T21:04:41.328Z,96835.31
2022-09-28T21:07:08.090Z,96834.25
2022-09-28T21:09:34.497Z,96841.88
2022-09-28T21:12:01.075Z,96844.38
2022-09-28T21:14:27.651Z,96854.47
2022-09-28T21:16:53.913Z,96852.59
2022-09-28T21:19:20.873Z,96852.94
2022-09-28T21:21:47.184Z,96855.84
2022-09-28T21:24:13.475Z,96851.88
2022-09-28T21:26:39.878Z,96854.72
2022-09-28T21:29:07.269Z,96860.44
2022-09-28T21:31:38.222Z,96858.91
2022-09-28T21:34:07.604Z,96858.59
2022-09-28T21:36:34.280Z,96864.00
2022-09-28T21:39:00.561Z,96863.50
2022-09-28T21:41:26.902Z,96866.41
2022-09-28T21:43:53.210Z,96873.38
2022-09-28T21:46:19.640Z,96871.59
2022-09-28T21:48:45.964Z,96870.09
2022-09-28T21:51:15.618Z,96877.69
2022-09-28T21:53:42.601Z,96867.72
2022-09-28T21:56:10.128Z,96873.16
2022-09-28T21:58:36.675Z,96866.66
2022-09-28T22:01:07.308Z,96872.03
2022-09-28T22:03:34.805Z,96869.50
2022-09-28T22:06:01.598Z,96879.50
2022-09-28T22:08:27.955Z,96880.16
2022-09-28T22:11:10.950Z,96880.16
2022-09-28T22:13:41.525Z,96879.00
2022-09-28T22:16:08.563Z,96876.59
2022-09-28T22:18:35.137Z,96881.19
2022-09-28T22:21:02.772Z,96889.09
2022-09-28T22:23:29.365Z,96886.47
2022-09-28T22:26:19.406Z,96891.38
2022-09-28T22:28:47.078Z,96893.00
2022-09-28T22:31:13.854Z,96888.63
2022-09-28T22:33:40.210Z,96894.31
2022-09-28T22:36:07.875Z,96901.56
2022-09-28T22:38:35.173Z,96898.31
2022-09-28T22:41:03.337Z,96891.22
2022-09-28T22:43:30.069Z,96886.81
2022-09-28T22:46:03.603Z,96897.69
2022-09-28T22:48:30.529Z,96891.41
2022-09-28T22:50:56.973Z,96897.97
2022-09-28T22:53:23.321Z,96890.72
2022-09-28T22:55:49.864Z,96900.03
2022-09-28T22:58:16.198Z,96898.94
2022-09-28T23:00:43.142Z,96902.00
2022-09-28T23:03:09.494Z,96897.03
2022-09-28T23:05:35.878Z,96896.13
2022-09-28T23:08:02.608Z,96904.03
2022-09-28T23:10:28.923Z,96904.63
2022-09-28T23:12:55.248Z,96897.00
2022-09-28T23:15:22.290Z,96902.44
2022-09-28T23:17:54.963Z,96898.84
2022-09-28T23:20:21.786Z,96903.91
2022-09-28T23:22:48.832Z,96906.34
2022-09-28T23:25:16.141Z,96904.88
2022-09-28T23:27:49.454Z,96912.50
2022-09-28T23:30:16.821Z,96916.03
2022-09-28T23:32:43.196Z,96909.09
2022-09-28T23:35:09.896Z,96910.88
2022-09-28T23:37:36.674Z,96911.28
2022-09-28T23:40:03.846Z,96907.31
2022-09-28T23:42:30.469Z,96910.25
2022-09-28T23:44:56.738Z,96915.34
2022-09-28T23:47:23.096Z,96910.31
2022-09-28T23:49:49.375Z,96918.22
2022-09-28T23:52:15.685Z,96919.19
2022-09-28T23:54:42.101Z,96922.44
2022-09-28T23:57:08.389Z,96921.69
2022-09-28T23:59:34.668Z,96924.22
